Time;durP1;ratioP1;P1;durP2;ratioP2;P2;SDS_P1;SDS_P2;PMS_P1;PMS_P2;Temp;Humidity;BMP_temperature;BMP_pressure;BME280_temperature;BME280_humidity;BME280_pressure;Samples;Min_cycle;Max_cycle;Signal;HPM_P1;HPM_P2
2022/07/20 00:01:44;;;;;;;7.20;4.47;;;;;;;;;;5050593;28;20191;-64
2022/07/20 00:04:16;;;;;;;6.03;4.43;;;;;;;;;;5041412;28;20199;-64
2022/07/20 00:06:46;;;;;;;8.27;4.30;;;;;;;;;;5052386;28;20267;-65
2022/07/20 00:12:08;;;;;;;6.47;4.40;;;;;;;;;;5024084;28;20210;-63
2022/07/20 00:14:40;;;;;;;6.57;3.83;;;;;;;;;;5051255;28;20207;-64
2022/07/20 00:17:13;;;;;;;8.80;4.33;;;;;;;;;;5031808;28;20240;-64
2022/07/20 00:19:46;;;;;;;5.10;4.47;;;;;;;;;;5050995;28;20666;-64
2022/07/20 00:22:16;;;;;;;7.47;4.40;;;;;;;;;;5048196;28;20209;-64
2022/07/20 00:24:47;;;;;;;6.67;4.23;;;;;;;;;;5030963;28;20206;-66
2022/07/20 00:27:19;;;;;;;6.97;4.30;;;;;;;;;;5051328;28;20214;-66
2022/07/20 00:29:49;;;;;;;8.13;4.10;;;;;;;;;;5030839;28;20224;-67
2022/07/20 00:32:21;;;;;;;5.73;4.10;;;;;;;;;;5030147;28;20226;-67
2022/07/20 00:34:52;;;;;;;4.77;3.70;;;;;;;;;;5047792;28;20214;-67
2022/07/20 00:37:24;;;;;;;5.97;4.60;;;;;;;;;;5048053;28;20643;-67
2022/07/20 00:39:54;;;;;;;6.63;4.20;;;;;;;;;;5046556;28;20212;-67
2022/07/20 00:42:23;;;;;;;8.87;4.93;;;;;;;;;;5023609;28;20695;-66
2022/07/20 00:44:56;;;;;;;8.33;4.47;;;;;;;;;;5032866;28;20285;-66
2022/07/20 00:47:27;;;;;;;8.60;4.77;;;;;;;;;;5032999;28;20214;-67
2022/07/20 00:49:57;;;;;;;5.53;3.97;;;;;;;;;;5054974;28;20191;-66
2022/07/20 00:52:26;;;;;;;6.57;4.53;;;;;;;;;;5042852;28;20713;-66
2022/07/20 00:54:56;;;;;;;5.57;4.10;;;;;;;;;;5053615;28;20213;-66
2022/07/20 00:57:29;;;;;;;8.30;4.23;;;;;;;;;;5030861;28;20206;-66
2022/07/20 00:59:59;;;;;;;5.37;4.30;;;;;;;;;;5052046;28;20190;-66
2022/07/20 01:02:30;;;;;;;5.87;4.10;;;;;;;;;;5047636;28;20190;-66
2022/07/20 01:05:15;;;;;;;7.40;4.23;;;;;;;;;;5048287;28;20329;-66
2022/07/20 01:07:47;;;;;;;8.83;4.57;;;;;;;;;;5048608;28;20624;-67
2022/07/20 01:10:21;;;;;;;5.83;4.30;;;;;;;;;;5045179;28;20194;-67
2022/07/20 01:12:53;;;;;;;6.03;4.40;;;;;;;;;;5046006;28;20214;-67
2022/07/20 01:15:28;;;;;;;5.83;4.27;;;;;;;;;;5055783;28;20200;-67
2022/07/20 01:17:58;;;;;;;6.87;4.10;;;;;;;;;;5043556;28;20202;-67
2022/07/20 01:20:30;;;;;;;5.27;4.10;;;;;;;;;;5049864;28;20266;-67
2022/07/20 01:23:01;;;;;;;5.43;4.10;;;;;;;;;;5046437;28;20659;-67
2022/07/20 01:25:45;;;;;;;12.33;4.57;;;;;;;;;;5048150;28;20330;-67
2022/07/20 01:28:18;;;;;;;7.43;4.70;;;;;;;;;;5022147;28;20591;-67
2022/07/20 01:30:48;;;;;;;7.63;4.50;;;;;;;;;;5048258;28;20895;-67
2022/07/20 01:33:21;;;;;;;9.03;4.30;;;;;;;;;;5045734;28;20246;-67
2022/07/20 01:35:51;;;;;;;6.40;4.07;;;;;;;;;;5045767;28;20243;-66
2022/07/20 01:38:18;;;;;;;8.67;4.50;;;;;;;;;;5039882;28;20198;-66
2022/07/20 01:40:49;;;;;;;6.67;4.13;;;;;;;;;;5041920;28;20446;-66
2022/07/20 01:43:23;;;;;;;8.50;4.87;;;;;;;;;;5053086;28;20194;-66
2022/07/20 01:45:53;;;;;;;5.07;4.50;;;;;;;;;;5026159;28;20198;-66
2022/07/20 01:48:25;;;;;;;7.47;4.27;;;;;;;;;;5044241;28;20651;-67
2022/07/20 01:50:57;;;;;;;7.73;4.60;;;;;;;;;;5013657;28;20560;-67
2022/07/20 01:53:26;;;;;;;4.87;3.93;;;;;;;;;;5043949;28;20317;-67
2022/07/20 01:55:56;;;;;;;8.37;4.60;;;;;;;;;;5054197;28;20623;-67
2022/07/20 01:58:28;;;;;;;6.03;3.90;;;;;;;;;;5044039;28;20404;-67
2022/07/20 02:00:58;;;;;;;6.30;4.60;;;;;;;;;;5029967;28;20212;-67
2022/07/20 02:03:26;;;;;;;4.60;4.10;;;;;;;;;;5046544;28;20244;-67
2022/07/20 02:05:54;;;;;;;5.43;4.20;;;;;;;;;;5043698;28;20206;-67
2022/07/20 02:08:25;;;;;;;5.47;4.33;;;;;;;;;;5043783;28;20880;-67
2022/07/20 02:10:54;;;;;;;5.83;4.57;;;;;;;;;;5050550;28;20228;-67
2022/07/20 02:13:22;;;;;;;7.30;4.53;;;;;;;;;;5028298;28;20659;-67
2022/07/20 02:18:49;;;;;;;6.97;4.53;;;;;;;;;;5043109;28;20195;-67
2022/07/20 02:21:23;;;;;;;6.97;4.10;;;;;;;;;;5030054;28;20259;-67
2022/07/20 02:23:56;;;;;;;7.20;3.90;;;;;;;;;;5031662;28;20664;-66
2022/07/20 02:26:29;;;;;;;10.03;4.43;;;;;;;;;;5048134;28;20209;-66
2022/07/20 02:28:58;;;;;;;6.60;4.20;;;;;;;;;;5044866;28;20226;-67
2022/07/20 02:31:29;;;;;;;6.20;3.63;;;;;;;;;;5030199;28;20225;-67
2022/07/20 02:34:02;;;;;;;6.37;3.93;;;;;;;;;;5049407;28;20194;-67
2022/07/20 02:36:31;;;;;;;5.97;3.97;;;;;;;;;;5049967;28;20604;-66
2022/07/20 02:39:07;;;;;;;6.70;4.40;;;;;;;;;;5046552;28;20213;-66
2022/07/20 02:41:37;;;;;;;5.83;4.00;;;;;;;;;;5033804;28;20648;-67
2022/07/20 02:44:07;;;;;;;5.20;3.77;;;;;;;;;;5043546;28;20221;-67
2022/07/20 02:46:40;;;;;;;5.33;4.37;;;;;;;;;;5050800;28;20205;-67
2022/07/20 02:49:09;;;;;;;6.13;3.73;;;;;;;;;;5051961;28;20186;-67
2022/07/20 02:51:39;;;;;;;4.90;4.40;;;;;;;;;;5037281;28;20241;-67
2022/07/20 02:54:07;;;;;;;6.30;3.93;;;;;;;;;;5042369;28;20221;-67
2022/07/20 02:56:36;;;;;;;5.77;3.90;;;;;;;;;;5047621;28;20762;-67
2022/07/20 02:59:06;;;;;;;4.93;4.10;;;;;;;;;;5040185;28;20186;-66
2022/07/20 03:01:39;;;;;;;5.53;4.10;;;;;;;;;;5048277;28;20200;-66
2022/07/20 03:04:08;;;;;;;6.03;3.93;;;;;;;;;;5041230;28;20190;-66
2022/07/20 03:06:37;;;;;;;11.40;4.50;;;;;;;;;;5052128;28;20224;-67
2022/07/20 03:09:11;;;;;;;5.23;3.93;;;;;;;;;;5035569;28;20198;-66
2022/07/20 03:11:43;;;;;;;7.77;4.20;;;;;;;;;;5035399;28;20225;-67
2022/07/20 03:14:14;;;;;;;5.73;4.00;;;;;;;;;;5049269;28;20305;-67
2022/07/20 03:16:51;;;;;;;5.70;4.00;;;;;;;;;;5032998;28;20197;-66
2022/07/20 03:19:26;;;;;;;4.90;4.40;;;;;;;;;;5051468;28;20191;-66
2022/07/20 03:21:56;;;;;;;6.10;4.33;;;;;;;;;;5038961;28;20255;-67
2022/07/20 03:24:25;;;;;;;5.00;4.50;;;;;;;;;;5055373;28;20194;-67
2022/07/20 03:26:55;;;;;;;5.53;4.00;;;;;;;;;;5057941;28;20218;-67
2022/07/20 03:29:27;;;;;;;5.70;4.63;;;;;;;;;;5052527;28;20222;-67
2022/07/20 03:32:00;;;;;;;6.07;5.00;;;;;;;;;;5053073;28;20249;-67
2022/07/20 03:34:29;;;;;;;6.00;5.23;;;;;;;;;;5031277;28;20186;-67
2022/07/20 03:37:00;;;;;;;7.60;4.90;;;;;;;;;;5039345;28;20208;-67
2022/07/20 03:39:31;;;;;;;5.63;5.13;;;;;;;;;;5049051;28;20218;-67
2022/07/20 03:42:01;;;;;;;7.30;4.83;;;;;;;;;;5028298;28;20226;-67
2022/07/20 03:44:29;;;;;;;8.47;5.33;;;;;;;;;;5047663;28;20194;-67
2022/07/20 03:47:00;;;;;;;7.10;6.00;;;;;;;;;;5054264;28;20610;-66
2022/07/20 03:49:32;;;;;;;10.23;6.53;;;;;;;;;;5012850;28;20288;-67
2022/07/20 03:52:03;;;;;;;7.80;7.00;;;;;;;;;;5051297;28;20230;-67
2022/07/20 03:54:47;;;;;;;9.53;6.97;;;;;;;;;;5052587;28;20193;-67
2022/07/20 03:57:19;;;;;;;9.93;7.70;;;;;;;;;;5050247;28;20190;-65
2022/07/20 04:00:04;;;;;;;10.60;8.43;;;;;;;;;;5051392;28;20281;-64
2022/07/20 04:02:35;;;;;;;11.97;8.90;;;;;;;;;;5030319;28;20221;-65
2022/07/20 04:05:10;;;;;;;9.67;8.67;;;;;;;;;;5041066;28;20587;-65
2022/07/20 04:07:40;;;;;;;14.90;9.83;;;;;;;;;;5051376;28;20190;-66
2022/07/20 04:10:09;;;;;;;12.47;9.90;;;;;;;;;;5038962;28;20273;-64
2022/07/20 04:12:40;;;;;;;12.07;10.67;;;;;;;;;;5036049;28;20293;-64
2022/07/20 04:15:09;;;;;;;14.07;11.20;;;;;;;;;;5050356;28;20198;-65
2022/07/20 04:17:51;;;;;;;14.00;11.57;;;;;;;;;;5049935;28;20873;-66
2022/07/20 04:20:23;;;;;;;14.60;12.37;;;;;;;;;;5046356;28;21441;-65
2022/07/20 04:22:53;;;;;;;13.93;12.30;;;;;;;;;;5056628;28;20191;-65
2022/07/20 04:25:24;;;;;;;14.20;12.70;;;;;;;;;;5059492;28;20221;-64
2022/07/20 04:27:55;;;;;;;17.80;13.30;;;;;;;;;;5058807;28;20229;-65
2022/07/20 04:30:35;;;;;;;15.73;13.67;;;;;;;;;;5036189;28;20190;-64
2022/07/20 04:33:07;;;;;;;18.07;13.67;;;;;;;;;;5036762;28;20218;-63
2022/07/20 04:35:37;;;;;;;14.10;12.80;;;;;;;;;;5032264;28;20284;-64
2022/07/20 04:38:13;;;;;;;15.70;12.77;;;;;;;;;;5029303;28;20202;-64
2022/07/20 04:40:41;;;;;;;17.70;14.10;;;;;;;;;;5036189;28;20218;-64
2022/07/20 04:43:15;;;;;;;16.77;13.90;;;;;;;;;;5033179;28;20207;-64
2022/07/20 04:45:52;;;;;;;17.93;15.00;;;;;;;;;;5060169;28;20210;-63
2022/07/20 04:48:25;;;;;;;17.17;14.57;;;;;;;;;;5034042;28;21100;-63
2022/07/20 04:50:56;;;;;;;17.33;14.47;;;;;;;;;;5052954;28;20540;-66
2022/07/20 04:53:26;;;;;;;17.47;15.07;;;;;;;;;;5040666;28;20233;-67
2022/07/20 04:55:54;;;;;;;19.27;14.97;;;;;;;;;;5048753;28;20202;-65
2022/07/20 04:58:26;;;;;;;19.03;14.63;;;;;;;;;;5045435;28;20198;-65
2022/07/20 05:01:01;;;;;;;21.60;15.63;;;;;;;;;;5027488;28;20206;-66
2022/07/20 05:03:36;;;;;;;18.67;16.10;;;;;;;;;;5049690;28;20201;-66
2022/07/20 05:06:09;;;;;;;21.33;15.67;;;;;;;;;;5022922;28;20277;-66
2022/07/20 05:08:39;;;;;;;17.07;15.33;;;;;;;;;;5046186;28;20211;-66
2022/07/20 05:11:08;;;;;;;18.33;15.10;;;;;;;;;;5047527;28;20198;-65
2022/07/20 05:13:39;;;;;;;21.00;14.70;;;;;;;;;;5048194;28;20675;-65
2022/07/20 05:16:12;;;;;;;17.90;16.00;;;;;;;;;;5041045;28;20624;-65
2022/07/20 05:18:44;;;;;;;16.77;14.77;;;;;;;;;;5050634;28;20207;-65
2022/07/20 05:21:15;;;;;;;14.60;13.10;;;;;;;;;;5045900;28;21718;-66
2022/07/20 05:23:47;;;;;;;14.33;12.50;;;;;;;;;;5012496;28;20206;-66
2022/07/20 05:26:20;;;;;;;14.13;12.70;;;;;;;;;;5042190;28;20288;-66
2022/07/20 05:28:50;;;;;;;15.43;13.97;;;;;;;;;;5032047;28;20220;-66
2022/07/20 05:31:23;;;;;;;16.80;14.10;;;;;;;;;;5033659;28;20626;-66
2022/07/20 05:33:53;;;;;;;18.33;15.57;;;;;;;;;;5032248;28;20217;-66
2022/07/20 05:36:24;;;;;;;19.57;16.37;;;;;;;;;;5049046;28;20209;-66
2022/07/20 05:38:55;;;;;;;18.13;16.20;;;;;;;;;;5048343;28;20265;-65
2022/07/20 05:41:28;;;;;;;20.20;17.23;;;;;;;;;;5043302;28;20214;-64
2022/07/20 05:43:58;;;;;;;20.13;16.07;;;;;;;;;;5048760;28;20211;-65
2022/07/20 05:46:30;;;;;;;18.90;17.00;;;;;;;;;;5046367;28;20197;-66
2022/07/20 05:49:01;;;;;;;19.57;17.60;;;;;;;;;;5049134;28;20207;-66
2022/07/20 05:51:30;;;;;;;18.67;16.37;;;;;;;;;;5047096;28;20194;-66
2022/07/20 05:54:00;;;;;;;19.43;17.33;;;;;;;;;;5043103;28;20238;-66
2022/07/20 05:56:32;;;;;;;18.50;16.57;;;;;;;;;;5045835;28;20241;-65
2022/07/20 05:59:04;;;;;;;19.23;17.00;;;;;;;;;;5048766;28;20198;-65
2022/07/20 06:01:34;;;;;;;18.70;16.53;;;;;;;;;;5031043;28;20214;-67
2022/07/20 06:04:05;;;;;;;23.27;17.63;;;;;;;;;;5048023;28;20283;-64
2022/07/20 06:06:37;;;;;;;17.97;16.13;;;;;;;;;;5045622;28;20197;-62
2022/07/20 06:09:09;;;;;;;19.00;16.97;;;;;;;;;;5050116;28;20194;-62
2022/07/20 06:11:50;;;;;;;18.93;16.60;;;;;;;;;;5035485;28;20202;-62
2022/07/20 06:14:22;;;;;;;18.77;16.83;;;;;;;;;;5033641;28;20317;-61
2022/07/20 06:16:56;;;;;;;19.17;16.33;;;;;;;;;;5041776;28;20210;-62
2022/07/20 06:19:29;;;;;;;17.83;15.97;;;;;;;;;;5052331;28;20198;-62
2022/07/20 06:22:00;;;;;;;18.40;16.17;;;;;;;;;;5053275;28;20189;-62
2022/07/20 06:24:49;;;;;;;18.27;16.43;;;;;;;;;;5050649;28;20624;-62
2022/07/20 06:27:27;;;;;;;18.07;16.17;;;;;;;;;;5056340;28;20589;-62
2022/07/20 06:30:06;;;;;;;18.50;16.17;;;;;;;;;;5025778;28;20663;-62
2022/07/20 06:32:43;;;;;;;18.17;15.90;;;;;;;;;;5030599;28;20224;-62
2022/07/20 06:35:11;;;;;;;17.70;15.90;;;;;;;;;;5032033;28;20200;-61
2022/07/20 06:37:47;;;;;;;16.90;15.20;;;;;;;;;;5050684;28;20627;-61
2022/07/20 06:40:18;;;;;;;18.90;16.30;;;;;;;;;;5030249;28;20677;-61
2022/07/20 06:42:48;;;;;;;17.30;15.50;;;;;;;;;;5050588;28;20202;-61
2022/07/20 06:45:17;;;;;;;16.97;15.20;;;;;;;;;;5049602;28;20198;-64
2022/07/20 06:47:49;;;;;;;17.47;15.60;;;;;;;;;;5051775;28;20285;-65
2022/07/20 06:50:20;;;;;;;16.97;15.40;;;;;;;;;;5047609;28;20202;-64
2022/07/20 06:52:50;;;;;;;16.70;15.00;;;;;;;;;;5050123;28;20222;-65
2022/07/20 06:55:20;;;;;;;17.07;15.37;;;;;;;;;;5049281;28;20201;-61
2022/07/20 06:57:52;;;;;;;17.00;15.13;;;;;;;;;;5048411;28;20241;-62
2022/07/20 07:00:25;;;;;;;16.20;14.60;;;;;;;;;;5047323;28;20461;-64
2022/07/20 07:02:57;;;;;;;15.53;14.13;;;;;;;;;;5059471;28;20616;-64
2022/07/20 07:05:30;;;;;;;15.60;14.10;;;;;;;;;;5029747;28;20210;-65
2022/07/20 07:08:04;;;;;;;16.60;14.33;;;;;;;;;;5057299;28;20198;-65
2022/07/20 07:10:35;;;;;;;16.07;14.40;;;;;;;;;;5060245;28;20252;-65
2022/07/20 07:13:04;;;;;;;14.67;13.43;;;;;;;;;;5064201;28;20220;-65
2022/07/20 07:15:37;;;;;;;14.93;13.47;;;;;;;;;;5042806;28;20627;-65
2022/07/20 07:18:09;;;;;;;14.17;12.67;;;;;;;;;;5047262;28;20342;-65
2022/07/20 07:20:43;;;;;;;14.97;13.50;;;;;;;;;;5053091;28;20194;-62
2022/07/20 07:23:13;;;;;;;14.20;12.90;;;;;;;;;;5059602;28;20209;-62
2022/07/20 07:25:45;;;;;;;14.60;13.17;;;;;;;;;;5065296;28;20208;-62
2022/07/20 07:28:15;;;;;;;14.13;12.93;;;;;;;;;;5040180;28;20229;-62
2022/07/20 07:30:46;;;;;;;13.73;12.40;;;;;;;;;;5060589;28;20201;-61
2022/07/20 07:33:25;;;;;;;13.87;12.47;;;;;;;;;;5034958;28;20658;-62
2022/07/20 07:35:58;;;;;;;14.57;13.27;;;;;;;;;;5048050;28;20216;-62
2022/07/20 07:38:34;;;;;;;14.33;12.93;;;;;;;;;;5052032;28;20189;-62
2022/07/20 07:41:06;;;;;;;13.83;12.63;;;;;;;;;;5053800;28;20237;-62
2022/07/20 07:43:35;;;;;;;13.57;12.33;;;;;;;;;;5029343;28;20233;-62
2022/07/20 07:46:03;;;;;;;13.37;12.17;;;;;;;;;;5032079;28;20206;-65
2022/07/20 07:48:32;;;;;;;14.10;12.70;;;;;;;;;;5036298;28;20202;-64
2022/07/20 07:51:08;;;;;;;13.73;12.33;;;;;;;;;;5054717;28;20202;-62
2022/07/20 07:53:40;;;;;;;12.53;11.43;;;;;;;;;;5045764;28;20230;-62
2022/07/20 07:56:09;;;;;;;12.23;11.13;;;;;;;;;;5042202;28;20430;-62
2022/07/20 07:58:40;;;;;;;14.43;12.80;;;;;;;;;;5042759;28;20689;-62
2022/07/20 08:01:35;;;;;;;12.37;11.27;;;;;;;;;;5049342;28;20272;-65
2022/07/20 08:04:06;;;;;;;12.27;11.17;;;;;;;;;;5049446;28;20200;-64
2022/07/20 08:06:40;;;;;;;13.33;12.13;;;;;;;;;;5031948;28;20203;-64
2022/07/20 08:09:12;;;;;;;13.07;11.87;;;;;;;;;;5053193;28;20208;-64
2022/07/20 08:11:45;;;;;;;12.20;11.10;;;;;;;;;;5049464;28;20202;-62
2022/07/20 08:14:17;;;;;;;12.10;11.00;;;;;;;;;;5047167;28;20583;-62
2022/07/20 08:16:48;;;;;;;12.83;11.73;;;;;;;;;;5045145;28;20222;-62
2022/07/20 08:19:21;;;;;;;12.30;11.10;;;;;;;;;;5052262;28;20195;-62
2022/07/20 08:21:53;;;;;;;12.90;11.60;;;;;;;;;;5049789;28;20206;-61
2022/07/20 08:24:22;;;;;;;12.73;10.83;;;;;;;;;;5029831;28;20206;-61
2022/07/20 08:26:52;;;;;;;12.67;11.40;;;;;;;;;;5050549;28;20281;-62
2022/07/20 08:29:23;;;;;;;13.17;11.47;;;;;;;;;;5050978;28;20210;-61
2022/07/20 08:31:58;;;;;;;12.13;10.90;;;;;;;;;;5053433;28;20210;-64
2022/07/20 08:34:29;;;;;;;13.27;11.80;;;;;;;;;;5049169;28;20215;-64
2022/07/20 08:36:59;;;;;;;12.80;11.47;;;;;;;;;;5049507;28;20201;-63
2022/07/20 08:39:31;;;;;;;14.10;11.00;;;;;;;;;;5057192;28;20611;-62
2022/07/20 08:42:10;;;;;;;12.47;11.17;;;;;;;;;;5046444;28;20293;-62
2022/07/20 08:44:45;;;;;;;12.03;10.30;;;;;;;;;;5041703;28;20206;-63
2022/07/20 08:47:16;;;;;;;12.20;10.90;;;;;;;;;;5031968;28;20217;-64
2022/07/20 08:49:53;;;;;;;11.57;10.43;;;;;;;;;;5032244;28;20523;-65
2022/07/20 08:52:24;;;;;;;11.90;10.60;;;;;;;;;;5045170;28;20574;-62
2022/07/20 08:54:58;;;;;;;11.10;10.00;;;;;;;;;;5049381;28;20214;-62
2022/07/20 08:57:26;;;;;;;11.50;10.50;;;;;;;;;;5050612;28;20293;-62
2022/07/20 08:59:59;;;;;;;10.93;9.80;;;;;;;;;;5054431;28;20615;-62
2022/07/20 09:03:06;;;;;;;11.60;9.90;;;;;;;;;;5049289;28;20205;-65
2022/07/20 09:05:38;;;;;;;12.07;10.10;;;;;;;;;;5045007;28;20202;-65
2022/07/20 09:08:09;;;;;;;10.30;9.30;;;;;;;;;;5027552;28;20209;-64
2022/07/20 09:10:40;;;;;;;10.63;9.57;;;;;;;;;;5048019;28;20208;-64
2022/07/20 09:13:22;;;;;;;10.50;9.50;;;;;;;;;;5047967;28;20292;-65
2022/07/20 09:16:04;;;;;;;12.33;9.83;;;;;;;;;;5043408;28;20276;-65
2022/07/20 09:18:33;;;;;;;10.70;9.60;;;;;;;;;;5032610;28;20202;-65
2022/07/20 09:21:08;;;;;;;10.83;9.23;;;;;;;;;;5031311;28;20202;-63
2022/07/20 09:23:48;;;;;;;10.50;9.07;;;;;;;;;;5048169;28;20687;-62
2022/07/20 09:26:18;;;;;;;10.37;9.37;;;;;;;;;;5052296;28;20229;-62
2022/07/20 09:28:57;;;;;;;10.30;9.10;;;;;;;;;;5027218;28;20221;-62
2022/07/20 09:31:35;;;;;;;9.90;9.00;;;;;;;;;;5043286;28;20204;-62
2022/07/20 09:34:07;;;;;;;9.47;8.47;;;;;;;;;;5048374;28;20202;-62
2022/07/20 09:36:42;;;;;;;9.70;8.80;;;;;;;;;;5046950;28;20201;-62
2022/07/20 09:39:16;;;;;;;9.67;8.73;;;;;;;;;;5040817;28;20201;-62
2022/07/20 09:41:58;;;;;;;9.63;8.73;;;;;;;;;;5053942;28;20654;-62
2022/07/20 09:44:34;;;;;;;9.47;8.40;;;;;;;;;;5056296;28;20622;-62
2022/07/20 09:47:20;;;;;;;9.53;8.23;;;;;;;;;;5023871;28;20671;-64
2022/07/20 09:49:55;;;;;;;9.33;8.43;;;;;;;;;;5044767;28;20510;-64
2022/07/20 09:52:27;;;;;;;8.77;7.97;;;;;;;;;;5019849;28;20951;-64
2022/07/20 09:55:05;;;;;;;9.63;7.83;;;;;;;;;;5031687;28;20864;-64
2022/07/20 09:57:38;;;;;;;8.50;7.70;;;;;;;;;;5036691;28;20199;-62
2022/07/20 10:00:10;;;;;;;8.30;7.47;;;;;;;;;;5036113;28;20202;-62
2022/07/20 10:02:44;;;;;;;8.17;7.37;;;;;;;;;;5027892;28;20218;-62
2022/07/20 10:05:18;;;;;;;8.27;7.23;;;;;;;;;;5028598;28;20214;-61
2022/07/20 10:07:53;;;;;;;8.60;7.80;;;;;;;;;;5026244;28;20249;-62
2022/07/20 10:10:26;;;;;;;7.83;7.03;;;;;;;;;;5038530;28;20826;-61
2022/07/20 10:12:55;;;;;;;8.53;7.17;;;;;;;;;;5030840;28;20208;-61
2022/07/20 10:15:36;;;;;;;7.77;7.07;;;;;;;;;;5033047;28;20582;-63
2022/07/20 10:18:12;;;;;;;8.10;7.30;;;;;;;;;;5034181;28;20265;-63
2022/07/20 10:20:51;;;;;;;7.83;7.03;;;;;;;;;;5027734;28;20219;-61
2022/07/20 10:23:26;;;;;;;7.80;7.10;;;;;;;;;;5032903;28;20189;-61
2022/07/20 10:25:57;;;;;;;8.30;7.60;;;;;;;;;;5027161;28;20198;-63
2022/07/20 10:28:33;;;;;;;7.67;6.97;;;;;;;;;;5016703;28;20255;-63
2022/07/20 10:31:08;;;;;;;8.33;7.30;;;;;;;;;;5031536;28;20191;-61
2022/07/20 10:33:45;;;;;;;7.43;6.73;;;;;;;;;;5029419;28;20218;-61
2022/07/20 10:39:25;;;;;;;7.67;6.97;;;;;;;;;;5032218;28;20273;-64
2022/07/20 10:42:17;;;;;;;8.10;6.80;;;;;;;;;;5023160;28;20207;-61
2022/07/20 10:44:47;;;;;;;8.23;7.43;;;;;;;;;;5031187;28;20293;-61
2022/07/20 10:47:38;;;;;;;7.73;7.03;;;;;;;;;;5028044;28;20216;-61
2022/07/20 10:50:10;;;;;;;8.03;7.23;;;;;;;;;;5025196;28;20238;-61
2022/07/20 10:52:59;;;;;;;7.20;6.50;;;;;;;;;;5029501;28;20928;-63
2022/07/20 10:55:52;;;;;;;7.53;6.83;;;;;;;;;;5051468;28;20217;-65
2022/07/20 10:58:31;;;;;;;7.77;6.97;;;;;;;;;;5037935;28;20679;-63
2022/07/20 11:01:09;;;;;;;7.63;6.93;;;;;;;;;;5047536;28;20291;-63
2022/07/20 11:03:45;;;;;;;7.90;7.20;;;;;;;;;;5049454;28;20206;-63
2022/07/20 11:06:23;;;;;;;7.67;6.87;;;;;;;;;;5049145;28;20234;-63
2022/07/20 11:09:01;;;;;;;7.70;7.00;;;;;;;;;;5038499;28;20183;-63
2022/07/20 11:11:38;;;;;;;8.23;7.30;;;;;;;;;;5047157;28;20211;-66
2022/07/20 11:14:10;;;;;;;7.53;6.93;;;;;;;;;;5030406;28;20893;-65
2022/07/20 11:16:40;;;;;;;7.60;6.23;;;;;;;;;;5039051;28;20238;-62
2022/07/20 11:19:14;;;;;;;7.57;6.87;;;;;;;;;;5044796;28;20231;-62
2022/07/20 11:21:49;;;;;;;7.87;7.07;;;;;;;;;;5035484;28;20221;-62
2022/07/20 11:24:21;;;;;;;7.70;6.93;;;;;;;;;;5035881;28;20202;-62
2022/07/20 11:26:51;;;;;;;7.03;6.27;;;;;;;;;;5049372;28;20632;-63
2022/07/20 11:29:22;;;;;;;7.57;6.87;;;;;;;;;;5045936;28;20221;-61
2022/07/20 11:31:54;;;;;;;6.70;6.13;;;;;;;;;;5032631;28;20771;-63
2022/07/20 11:34:25;;;;;;;6.70;6.10;;;;;;;;;;5052087;28;20312;-64
2022/07/20 11:37:04;;;;;;;8.50;6.37;;;;;;;;;;5061106;28;20202;-64
2022/07/20 11:39:37;;;;;;;7.37;6.50;;;;;;;;;;5052570;28;20191;-64
2022/07/20 11:42:11;;;;;;;7.53;6.57;;;;;;;;;;5045611;28;20911;-60
2022/07/20 11:44:44;;;;;;;6.77;6.10;;;;;;;;;;5050391;28;20194;-60
2022/07/20 11:47:14;;;;;;;6.97;6.27;;;;;;;;;;5058974;28;20201;-64
2022/07/20 11:49:47;;;;;;;6.57;5.97;;;;;;;;;;5052313;28;20200;-64
2022/07/20 11:52:18;;;;;;;6.53;5.93;;;;;;;;;;5056522;28;20261;-61
2022/07/20 11:54:48;;;;;;;7.00;6.40;;;;;;;;;;5045373;28;20272;-61
2022/07/20 11:57:20;;;;;;;7.13;6.53;;;;;;;;;;5038985;28;20568;-61
2022/07/20 11:59:51;;;;;;;6.23;5.73;;;;;;;;;;5061815;28;20194;-61
2022/07/20 12:02:24;;;;;;;6.93;5.80;;;;;;;;;;5057928;28;20186;-61
2022/07/20 12:04:55;;;;;;;6.17;5.67;;;;;;;;;;5045735;28;20207;-61
2022/07/20 12:10:33;;;;;;;5.80;5.30;;;;;;;;;;5045112;28;20193;-62
2022/07/20 12:13:07;;;;;;;6.43;5.90;;;;;;;;;;5034037;28;20193;-61
2022/07/20 12:15:51;;;;;;;5.90;5.40;;;;;;;;;;5038229;28;20271;-62
2022/07/20 12:18:41;;;;;;;5.83;5.33;;;;;;;;;;5028028;28;20218;-62
2022/07/20 12:21:12;;;;;;;6.37;5.63;;;;;;;;;;5029878;28;20199;-64
2022/07/20 12:23:46;;;;;;;5.53;5.03;;;;;;;;;;5025823;28;20298;-65
2022/07/20 12:26:21;;;;;;;5.73;5.17;;;;;;;;;;5046985;28;20202;-64
2022/07/20 12:28:55;;;;;;;5.80;5.30;;;;;;;;;;5051094;28;20218;-64
2022/07/20 12:31:29;;;;;;;5.63;5.23;;;;;;;;;;5065668;28;20200;-65
2022/07/20 12:34:05;;;;;;;5.80;5.33;;;;;;;;;;5051397;28;20206;-64
2022/07/20 12:36:49;;;;;;;5.47;4.97;;;;;;;;;;5065375;28;20181;-64
2022/07/20 12:39:48;;;;;;;5.20;4.80;;;;;;;;;;5059811;28;20322;-64
2022/07/20 12:42:29;;;;;;;5.50;5.00;;;;;;;;;;5051682;28;20241;-65
2022/07/20 12:45:09;;;;;;;5.27;4.77;;;;;;;;;;5053432;28;20198;-63
2022/07/20 12:47:39;;;;;;;6.10;5.50;;;;;;;;;;5056189;28;20208;-62
2022/07/20 12:50:37;;;;;;;5.93;5.23;;;;;;;;;;5046778;28;20210;-62
2022/07/20 12:53:09;;;;;;;5.03;4.63;;;;;;;;;;5043060;28;20238;-62
2022/07/20 12:55:39;;;;;;;5.33;4.70;;;;;;;;;;5054189;28;20249;-62
2022/07/20 12:58:17;;;;;;;5.60;5.10;;;;;;;;;;5055904;28;20395;-62
2022/07/20 13:00:47;;;;;;;5.77;4.80;;;;;;;;;;5067287;28;20985;-63
2022/07/20 13:03:19;;;;;;;6.97;5.40;;;;;;;;;;5050893;28;20188;-62
2022/07/20 13:05:52;;;;;;;4.90;4.40;;;;;;;;;;5051148;28;20206;-62
2022/07/20 13:08:24;;;;;;;5.70;5.20;;;;;;;;;;5037586;28;20197;-62
2022/07/20 13:11:07;;;;;;;5.37;4.77;;;;;;;;;;5060547;28;20746;-62
2022/07/20 13:13:38;;;;;;;4.87;4.47;;;;;;;;;;5054729;28;20194;-61
2022/07/20 13:16:13;;;;;;;5.50;4.93;;;;;;;;;;5054828;28;20307;-61
2022/07/20 13:18:44;;;;;;;5.77;5.20;;;;;;;;;;5054427;28;20198;-61
2022/07/20 13:21:17;;;;;;;5.30;4.80;;;;;;;;;;5032362;28;20245;-62
2022/07/20 13:23:49;;;;;;;5.10;4.60;;;;;;;;;;5053107;28;20517;-62
2022/07/20 13:26:23;;;;;;;4.80;4.37;;;;;;;;;;5050306;28;20625;-65
2022/07/20 13:29:15;;;;;;;4.60;4.20;;;;;;;;;;5042354;28;20215;-65
2022/07/20 13:31:49;;;;;;;5.20;4.80;;;;;;;;;;5054995;28;20269;-62
2022/07/20 13:34:21;;;;;;;5.07;4.60;;;;;;;;;;5026916;28;20222;-62
2022/07/20 13:36:51;;;;;;;5.03;4.60;;;;;;;;;;5054267;28;20190;-62
2022/07/20 13:39:21;;;;;;;5.40;4.90;;;;;;;;;;5050933;28;20686;-62
2022/07/20 13:41:53;;;;;;;5.03;4.57;;;;;;;;;;5044273;28;20202;-64
2022/07/20 13:44:24;;;;;;;5.00;4.50;;;;;;;;;;5021283;28;20198;-64
2022/07/20 13:47:01;;;;;;;5.03;4.53;;;;;;;;;;5042159;28;20218;-65
2022/07/20 13:49:44;;;;;;;4.47;4.10;;;;;;;;;;5030335;28;20203;-65
2022/07/20 13:52:17;;;;;;;4.77;4.40;;;;;;;;;;5050670;28;20240;-61
2022/07/20 13:54:50;;;;;;;5.47;4.80;;;;;;;;;;5032367;28;20275;-62
2022/07/20 13:57:31;;;;;;;5.03;4.63;;;;;;;;;;5047963;28;20651;-62
2022/07/20 14:00:03;;;;;;;5.10;4.60;;;;;;;;;;5041860;28;20792;-62
2022/07/20 14:02:33;;;;;;;5.23;4.60;;;;;;;;;;5056458;28;20562;-62
2022/07/20 14:05:04;;;;;;;5.17;4.70;;;;;;;;;;5026499;28;20253;-62
2022/07/20 14:07:36;;;;;;;4.87;4.47;;;;;;;;;;5047768;28;20186;-65
2022/07/20 14:10:10;;;;;;;5.00;4.60;;;;;;;;;;5030142;28;20210;-62
2022/07/20 14:12:43;;;;;;;5.00;4.60;;;;;;;;;;5027332;28;20665;-62
2022/07/20 14:15:13;;;;;;;5.00;4.50;;;;;;;;;;5047787;28;20221;-62
2022/07/20 14:17:45;;;;;;;5.33;4.67;;;;;;;;;;5009119;28;20198;-62
2022/07/20 14:20:13;;;;;;;5.10;4.70;;;;;;;;;;5044275;28;20186;-64
2022/07/20 14:22:44;;;;;;;4.90;4.23;;;;;;;;;;5061825;28;20235;-65
2022/07/20 14:25:27;;;;;;;5.50;4.23;;;;;;;;;;5064013;28;20182;-65
2022/07/20 14:27:57;;;;;;;5.13;4.73;;;;;;;;;;5046903;28;20250;-65
2022/07/20 14:30:27;;;;;;;5.17;4.67;;;;;;;;;;5038228;28;20209;-62
2022/07/20 14:32:57;;;;;;;4.70;4.30;;;;;;;;;;5046743;28;20210;-63
2022/07/20 14:35:32;;;;;;;4.60;4.20;;;;;;;;;;5049453;28;20263;-63
2022/07/20 14:38:01;;;;;;;4.80;4.40;;;;;;;;;;5038768;28;20201;-63
2022/07/20 14:40:33;;;;;;;5.43;4.30;;;;;;;;;;5041136;28;20269;-62
2022/07/20 14:43:05;;;;;;;4.77;4.27;;;;;;;;;;5055077;28;20356;-61
2022/07/20 14:45:37;;;;;;;4.47;4.07;;;;;;;;;;5056374;28;20210;-64
2022/07/20 14:48:08;;;;;;;4.50;4.10;;;;;;;;;;5063376;28;20186;-65
2022/07/20 14:50:38;;;;;;;4.60;4.20;;;;;;;;;;5044689;28;20194;-65
2022/07/20 14:53:09;;;;;;;4.43;4.03;;;;;;;;;;5051624;28;20279;-65
2022/07/20 14:55:46;;;;;;;4.50;4.10;;;;;;;;;;5048087;28;20210;-63
2022/07/20 14:58:18;;;;;;;4.40;3.97;;;;;;;;;;5046388;28;20272;-62
2022/07/20 15:00:49;;;;;;;4.50;4.10;;;;;;;;;;5029132;28;20194;-65
2022/07/20 15:03:21;;;;;;;4.27;3.87;;;;;;;;;;5033215;28;20218;-65
2022/07/20 15:05:51;;;;;;;4.43;4.03;;;;;;;;;;5033493;28;20217;-65
2022/07/20 15:08:25;;;;;;;4.40;4.10;;;;;;;;;;5047723;28;20195;-65
2022/07/20 15:10:58;;;;;;;4.50;4.10;;;;;;;;;;5055744;28;20285;-62
2022/07/20 15:13:28;;;;;;;4.67;4.27;;;;;;;;;;5052121;28;20210;-62
2022/07/20 15:15:59;;;;;;;4.23;3.90;;;;;;;;;;5027405;28;20706;-62
2022/07/20 15:18:31;;;;;;;4.33;4.03;;;;;;;;;;5035813;28;20216;-62
2022/07/20 15:21:01;;;;;;;5.33;4.20;;;;;;;;;;5069614;28;20194;-65